Time;durP1;ratioP1;P1;durP2;ratioP2;P2;SDS_P1;SDS_P2;PMS_P1;PMS_P2;Temp;Humidity;BMP_temperature;BMP_pressure;BME280_temperature;BME280_humidity;BME280_pressure;Samples;Min_cycle;Max_cycle;Signal;HPM_P1;HPM_P2
2023/10/09 00:01:46;;;;;;;1.15;0.57;;;5.10;99.90;;;;;;4193568;28;20056;-59
2023/10/09 00:03:52;;;;;;;1.13;0.43;;;5.10;99.90;;;;;;4194243;28;20032;-60
2023/10/09 00:05:55;;;;;;;1.57;0.70;;;5.10;99.90;;;;;;4194122;28;20033;-58
2023/10/09 00:07:57;;;;;;;1.33;0.40;;;5.20;99.90;;;;;;4193561;28;20048;-58
2023/10/09 00:09:59;;;;;;;1.20;0.40;;;5.20;99.90;;;;;;4194075;28;20072;-59
2023/10/09 00:12:01;;;;;;;1.23;0.50;;;5.20;99.90;;;;;;4193469;28;20021;-59
2023/10/09 00:14:05;;;;;;;2.27;0.57;;;5.20;99.90;;;;;;4194293;28;20098;-58
2023/10/09 00:16:14;;;;;;;5.03;1.00;;;5.20;99.90;;;;;;4193840;28;20106;-54
2023/10/09 00:18:15;;;;;;;2.73;0.93;;;5.10;99.90;;;;;;4194741;28;20331;-61
2023/10/09 00:20:25;;;;;;;3.07;0.80;;;5.20;99.90;;;;;;4193529;28;21365;-59
2023/10/09 00:22:26;;;;;;;3.20;0.95;;;5.10;99.90;;;;;;4180054;28;20389;-60
2023/10/09 00:24:28;;;;;;;1.33;0.50;;;5.10;99.90;;;;;;4193419;28;20552;-59
2023/10/09 00:26:30;;;;;;;0.87;0.53;;;5.10;99.90;;;;;;4188917;28;20033;-58
2023/10/09 00:28:34;;;;;;;1.47;0.43;;;5.10;99.90;;;;;;4182665;28;20024;-60
2023/10/09 00:30:35;;;;;;;1.43;0.50;;;5.10;99.90;;;;;;4194740;28;20091;-56
2023/10/09 00:32:37;;;;;;;1.37;0.60;;;5.00;99.90;;;;;;4193259;28;20186;-60
2023/10/09 00:34:41;;;;;;;2.03;0.50;;;5.10;99.90;;;;;;4194339;28;20075;-60
2023/10/09 00:36:50;;;;;;;1.77;1.13;;;5.10;99.90;;;;;;4193252;28;20097;-57
2023/10/09 00:38:51;;;;;;;1.53;0.70;;;5.10;99.90;;;;;;4183060;28;20083;-58
2023/10/09 00:43:13;;;;;;;1.10;0.40;;;5.00;99.90;;;;;;4193844;28;20070;-57
2023/10/09 00:45:24;;;;;;;2.60;0.80;;;5.00;99.90;;;;;;4192825;28;20033;-58
2023/10/09 00:47:34;;;;;;;2.07;0.40;;;5.00;99.90;;;;;;4193785;28;20093;-62
2023/10/09 00:49:35;;;;;;;0.93;0.50;;;5.00;99.90;;;;;;4192608;28;20385;-60
2023/10/09 00:51:55;;;;;;;1.50;0.70;;;5.00;99.90;;;;;;4194388;28;20374;-60
2023/10/09 00:53:58;;;;;;;;;;;5.00;99.90;;;;;;4193115;28;20091;-58
2023/10/09 00:56:18;;;;;;;1.70;0.60;;;5.00;99.90;;;;;;4193638;28;19912;-58
2023/10/09 00:58:23;;;;;;;1.38;0.52;;;4.90;99.90;;;;;;4193016;28;20443;-58
2023/10/09 01:02:36;;;;;;;1.20;0.60;;;4.90;99.90;;;;;;4192861;28;20078;-57
2023/10/09 01:04:40;;;;;;;2.17;0.60;;;4.90;99.90;;;;;;4193778;28;20530;-58
2023/10/09 01:06:44;;;;;;;3.17;0.40;;;4.80;99.90;;;;;;4191913;28;20025;-59
2023/10/09 01:08:55;;;;;;;0.50;0.40;;;4.80;99.90;;;;;;4189246;28;20040;-60
2023/10/09 01:11:09;;;;;;;2.20;0.60;;;4.80;99.90;;;;;;4189603;28;20109;-57
2023/10/09 01:13:10;;;;;;;3.47;1.00;;;4.70;99.90;;;;;;4193351;28;20079;-59
2023/10/09 01:15:35;;;;;;;1.20;0.50;;;4.70;99.90;;;;;;4193359;28;20098;-58
2023/10/09 01:17:36;;;;;;;2.10;0.90;;;4.70;99.90;;;;;;4193718;28;20094;-59
2023/10/09 01:19:37;;;;;;;7.70;0.50;;;4.70;99.90;;;;;;4192731;28;20025;-57
2023/10/09 01:21:42;;;;;;;3.00;0.93;;;4.70;99.90;;;;;;4193219;28;20074;-60
2023/10/09 01:26:00;;;;;;;1.67;0.37;;;4.70;99.90;;;;;;4193195;28;20086;-58
2023/10/09 01:28:01;;;;;;;1.50;0.50;;;4.60;99.90;;;;;;4193192;28;20119;-58
2023/10/09 01:30:03;;;;;;;7.23;0.73;;;4.60;99.90;;;;;;4193321;28;20032;-59
2023/10/09 01:32:04;;;;;;;1.53;0.50;;;4.50;99.90;;;;;;4193379;28;20036;-59
2023/10/09 01:34:09;;;;;;;1.57;0.50;;;4.50;99.90;;;;;;4192921;28;20601;-59
2023/10/09 01:36:14;;;;;;;2.03;0.90;;;4.40;99.90;;;;;;4193493;28;20082;-60
2023/10/09 01:38:16;;;;;;;2.57;0.87;;;4.40;99.90;;;;;;4191028;28;20085;-59
2023/10/09 01:40:37;;;;;;;2.57;0.77;;;4.40;99.90;;;;;;4193616;28;20150;-54
2023/10/09 01:42:45;;;;;;;11.50;6.53;;;4.40;99.90;;;;;;4192572;28;20509;-56
2023/10/09 01:44:48;;;;;;;2.47;1.50;;;4.30;99.90;;;;;;4194013;28;20034;-59
2023/10/09 01:46:52;;;;;;;1.43;0.60;;;4.30;99.90;;;;;;4192255;28;20074;-57
2023/10/09 01:48:54;;;;;;;2.00;0.80;;;4.30;99.90;;;;;;4193257;28;20450;-58
2023/10/09 01:50:55;;;;;;;2.57;0.70;;;4.30;99.90;;;;;;4192298;28;20089;-58
2023/10/09 01:53:00;;;;;;;1.00;0.50;;;4.20;99.90;;;;;;4195604;28;20281;-55
2023/10/09 01:55:15;;;;;;;0.80;0.57;;;4.20;99.90;;;;;;4195882;28;20082;-55
2023/10/09 01:57:24;;;;;;;3.90;0.63;;;4.20;99.90;;;;;;4196581;28;20730;-58
2023/10/09 01:59:25;;;;;;;2.27;0.73;;;4.20;99.90;;;;;;4195794;28;20266;-58
2023/10/09 02:01:27;;;;;;;1.10;0.40;;;4.20;99.90;;;;;;4196547;28;20649;-58
2023/10/09 02:03:29;;;;;;;1.20;0.70;;;4.20;99.90;;;;;;4195326;28;20289;-56
2023/10/09 02:05:33;;;;;;;0.83;0.30;;;4.20;99.90;;;;;;4196664;28;20277;-54
2023/10/09 02:07:41;;;;;;;2.10;0.87;;;4.20;99.90;;;;;;4195569;28;20082;-55
2023/10/09 02:09:46;;;;;;;0.57;0.40;;;4.20;99.90;;;;;;4195549;28;20024;-58
2023/10/09 02:11:51;;;;;;;1.00;0.50;;;4.20;99.90;;;;;;4194115;28;20101;-59
2023/10/09 02:14:00;;;;;;;2.77;0.73;;;4.20;99.90;;;;;;4196133;28;20045;-56
2023/10/09 02:16:14;;;;;;;3.97;0.75;;;4.10;99.90;;;;;;4195807;28;20278;-57
2023/10/09 02:20:28;;;;;;;1.87;0.40;;;4.20;99.90;;;;;;4195318;28;20356;-52
2023/10/09 02:22:34;;;;;;;1.87;0.60;;;4.20;99.90;;;;;;4195806;28;20385;-58
2023/10/09 02:28:59;;;;;;;2.93;1.03;;;4.10;99.90;;;;;;4195430;28;20273;-56
2023/10/09 02:31:11;;;;;;;2.43;0.50;;;4.10;99.90;;;;;;4196546;28;20055;-58
2023/10/09 02:33:27;;;;;;;1.60;0.67;;;4.10;99.90;;;;;;4195734;28;20277;-58
2023/10/09 02:35:38;;;;;;;1.30;0.70;;;4.10;99.90;;;;;;4195781;28;20273;-56
2023/10/09 02:37:39;;;;;;;1.50;0.80;;;4.20;99.90;;;;;;4194920;28;20050;-55
2023/10/09 02:39:46;;;;;;;1.70;0.80;;;4.10;99.90;;;;;;4196420;28;20492;-59
2023/10/09 02:41:50;;;;;;;4.70;1.37;;;4.10;99.90;;;;;;4194817;28;20257;-55
2023/10/09 02:43:55;;;;;;;1.50;0.70;;;4.10;99.90;;;;;;4195562;28;20293;-57
2023/10/09 02:45:56;;;;;;;4.43;0.97;;;4.10;99.90;;;;;;4195758;28;20086;-56
2023/10/09 02:47:59;;;;;;;2.70;0.50;;;4.10;99.90;;;;;;4194821;28;20455;-57
2023/10/09 02:50:06;;;;;;;2.73;0.77;;;4.20;99.90;;;;;;4194371;28;20132;-53
2023/10/09 02:52:08;;;;;;;1.13;0.53;;;4.10;99.90;;;;;;4194955;28;20281;-52
2023/10/09 02:54:18;;;;;;;1.73;0.60;;;4.10;99.90;;;;;;4196325;28;20687;-58
2023/10/09 02:56:24;;;;;;;2.42;0.60;;;4.10;99.90;;;;;;4194325;28;20277;-58
2023/10/09 02:58:25;;;;;;;2.10;1.00;;;4.10;99.90;;;;;;4195875;28;20074;-51
2023/10/09 03:00:31;;;;;;;1.33;0.67;;;4.10;99.90;;;;;;4194796;28;20253;-53
2023/10/09 03:02:32;;;;;;;2.43;0.80;;;4.00;99.90;;;;;;4193686;28;20297;-55
2023/10/09 03:04:33;;;;;;;1.03;0.43;;;4.00;99.90;;;;;;4194198;28;20037;-56
2023/10/09 03:06:35;;;;;;;3.83;0.80;;;4.00;99.90;;;;;;4194414;28;20289;-56
2023/10/09 03:08:37;;;;;;;1.37;0.50;;;4.00;99.90;;;;;;4194640;28;20032;-55
2023/10/09 03:10:38;;;;;;;1.17;0.70;;;4.00;99.90;;;;;;4195421;28;20269;-56
2023/10/09 03:12:43;;;;;;;2.97;0.70;;;3.90;99.90;;;;;;4194432;28;20538;-55
2023/10/09 03:14:44;;;;;;;2.70;0.80;;;3.90;99.90;;;;;;4195841;28;20285;-56
2023/10/09 03:16:48;;;;;;;3.87;0.93;;;3.80;99.90;;;;;;4194108;28;20281;-54
2023/10/09 03:18:51;;;;;;;2.43;0.80;;;3.70;99.90;;;;;;4195359;28;20289;-58
2023/10/09 03:20:52;;;;;;;3.57;0.70;;;3.60;99.90;;;;;;4194364;28;20257;-58
2023/10/09 03:22:54;;;;;;;1.47;0.60;;;3.60;99.90;;;;;;4195133;28;20305;-57
2023/10/09 03:24:55;;;;;;;2.40;1.00;;;3.50;99.90;;;;;;4195037;28;20269;-56
2023/10/09 03:26:58;;;;;;;1.63;0.90;;;3.50;99.90;;;;;;4194490;28;20823;-58
2023/10/09 03:29:01;;;;;;;2.33;0.97;;;3.40;99.90;;;;;;4194514;28;20330;-58
2023/10/09 03:31:02;;;;;;;1.23;0.50;;;3.40;99.90;;;;;;4193887;28;20261;-57
2023/10/09 03:33:04;;;;;;;2.20;1.00;;;3.30;99.90;;;;;;4194979;28;20672;-55
2023/10/09 03:35:06;;;;;;;4.93;0.87;;;3.30;99.90;;;;;;4193837;28;20277;-55
2023/10/09 03:37:21;;;;;;;2.27;0.63;;;3.20;99.90;;;;;;4195621;28;20335;-57
2023/10/09 03:41:42;;;;;;;2.30;1.20;;;3.10;99.90;;;;;;4195072;28;20603;-55
2023/10/09 03:43:45;;;;;;;2.17;1.10;;;3.10;99.90;;;;;;4194195;28;20839;-56
2023/10/09 03:45:54;;;;;;;1.97;1.00;;;3.00;99.90;;;;;;4195062;28;20269;-58
2023/10/09 03:48:01;;;;;;;2.57;0.77;;;3.00;99.90;;;;;;4193929;28;20351;-58
2023/10/09 03:50:20;;;;;;;1.83;1.00;;;3.00;99.90;;;;;;4201720;28;20269;-57
2023/10/09 03:52:25;;;;;;;3.17;0.60;;;3.10;99.90;;;;;;4194020;28;20269;-53
2023/10/09 03:54:27;;;;;;;1.37;0.70;;;3.10;99.90;;;;;;4194645;28;20282;-55
2023/10/09 03:56:28;;;;;;;1.67;0.73;;;3.10;99.90;;;;;;4193376;28;20281;-56
2023/10/09 03:58:33;;;;;;;3.10;1.03;;;3.00;99.90;;;;;;4195060;28;20277;-57
2023/10/09 04:00:48;;;;;;;2.07;1.03;;;3.10;99.90;;;;;;4193053;28;20290;-55
2023/10/09 04:02:50;;;;;;;10.83;4.40;;;3.00;99.90;;;;;;4194757;28;20297;-59
2023/10/09 04:04:51;;;;;;;2.60;1.20;;;3.00;99.90;;;;;;4193497;28;20281;-58
2023/10/09 04:06:52;;;;;;;3.30;1.57;;;2.90;99.90;;;;;;4194553;28;20729;-59
2023/10/09 04:08:54;;;;;;;2.43;1.17;;;2.90;99.90;;;;;;4192742;28;20335;-57
2023/10/09 04:11:02;;;;;;;4.07;1.60;;;2.90;99.90;;;;;;4194049;28;20280;-59
2023/10/09 04:13:08;;;;;;;3.67;1.03;;;2.90;99.90;;;;;;4192800;28;20277;-57
2023/10/09 04:15:15;;;;;;;4.90;1.40;;;2.90;99.90;;;;;;4192812;28;20285;-58
2023/10/09 04:19:23;;;;;;;3.10;1.07;;;2.80;99.90;;;;;;4193437;28;20338;-58
2023/10/09 04:21:36;;;;;;;3.20;1.57;;;2.80;99.90;;;;;;4184631;28;20266;-60
2023/10/09 04:23:59;;;;;;;5.70;1.90;;;2.80;99.90;;;;;;4194133;28;20708;-61
2023/10/09 04:25:59;;;;;;;6.53;1.43;;;2.70;99.90;;;;;;4192951;28;20342;-59
2023/10/09 04:28:11;;;;;;;5.40;2.57;;;2.70;99.90;;;;;;4194096;28;20783;-56
2023/10/09 04:30:15;;;;;;;3.87;1.67;;;2.70;99.90;;;;;;4192644;28;20653;-59
2023/10/09 04:32:16;;;;;;;4.40;1.70;;;2.70;99.90;;;;;;4191616;28;20331;-57
2023/10/09 04:34:22;;;;;;;3.37;1.93;;;2.60;99.90;;;;;;4190783;28;20273;-59
2023/10/09 04:36:26;;;;;;;6.23;2.33;;;2.60;99.90;;;;;;4193764;28;20688;-60
2023/10/09 04:38:29;;;;;;;5.67;2.20;;;2.60;99.90;;;;;;4192942;28;20735;-57
2023/10/09 04:42:58;;;;;;;1.83;1.07;;;2.70;99.90;;;;;;4193673;28;20419;-59
2023/10/09 04:49:29;;;;;;;6.03;2.43;;;3.00;99.90;;;;;;4193244;28;20331;-58
2023/10/09 04:51:36;;;;;;;10.73;3.30;;;3.20;99.90;;;;;;4193099;28;20274;-60
2023/10/09 04:53:47;;;;;;;5.90;2.23;;;3.40;99.90;;;;;;4192264;28;20041;-59
2023/10/09 04:55:54;;;;;;;6.53;2.20;;;3.60;99.90;;;;;;4192920;28;20344;-60
2023/10/09 04:58:02;;;;;;;7.27;2.17;;;3.90;99.90;;;;;;4193061;28;20266;-61
2023/10/09 05:00:22;;;;;;;6.00;2.00;;;4.30;99.90;;;;;;4192985;28;20410;-58
2023/10/09 05:02:23;;;;;;;4.23;1.83;;;4.70;99.90;;;;;;4193479;28;20277;-61
2023/10/09 05:06:55;;;;;;;4.77;1.57;;;5.20;99.90;;;;;;4192939;28;20326;-60
2023/10/09 05:09:07;;;;;;;3.90;1.67;;;5.50;99.90;;;;;;4193045;28;20447;-60
2023/10/09 05:11:15;;;;;;;4.47;1.43;;;5.90;99.90;;;;;;4193562;28;20021;-57
2023/10/09 05:13:36;;;;;;;2.57;1.70;;;6.30;99.90;;;;;;4191480;28;20045;-62
2023/10/09 05:15:45;;;;;;;3.10;1.48;;;6.80;99.90;;;;;;4193569;28;20423;-60
2023/10/09 05:17:56;;;;;;;1.92;0.80;;;7.50;99.90;;;;;;4192429;28;20058;-61
2023/10/09 05:20:55;;;;;;;5.45;1.45;;;8.20;99.90;;;;;;4193711;28;20086;-62
2023/10/09 05:22:36;;;;;;;3.47;1.13;;;8.60;99.90;;;;;;4192639;28;20455;-56
2023/10/09 05:24:47;;;;;;;3.23;1.10;;;9.00;99.90;;;;;;4194271;28;20052;-61
2023/10/09 05:28:52;;;;;;;2.50;1.60;;;10.00;99.90;;;;;;4197123;28;20554;-60
2023/10/09 05:31:08;;;;;;;2.60;1.20;;;10.60;99.90;;;;;;4196174;28;20102;-62
2023/10/09 05:33:27;;;;;;;2.17;1.10;;;11.00;99.90;;;;;;4197469;28;20036;-59
2023/10/09 05:35:41;;;;;;;5.60;2.57;;;11.30;99.90;;;;;;4196221;28;20138;-57
2023/10/09 05:37:45;;;;;;;16.23;5.93;;;11.70;99.90;;;;;;4197058;28;20025;-58
2023/10/09 05:42:09;;;;;;;8.67;3.27;;;12.40;99.90;;;;;;4197173;28;20574;-60
2023/10/09 05:46:35;;;;;;;3.88;2.20;;;12.60;99.90;;;;;;4197023;28;20032;-56
2023/10/09 05:49:09;;;;;;;6.22;2.75;;;12.80;99.90;;;;;;4195592;28;20449;-58
2023/10/09 05:51:41;;;;;;;6.03;2.53;;;13.20;99.90;;;;;;4196454;28;20032;-59
2023/10/09 05:58:19;;;;;;;7.72;2.47;;;13.90;99.10;;;;;;4196869;28;20097;-60
2023/10/09 06:05:40;;;;;;;2.33;1.02;;;14.20;96.00;;;;;;4196316;28;20056;-59
2023/10/09 06:07:49;;;;;;;1.75;1.17;;;13.90;95.50;;;;;;4196276;28;20372;-60
2023/10/09 06:09:52;;;;;;;1.77;0.75;;;13.90;95.50;;;;;;4195223;28;20701;-61
2023/10/09 06:14:12;;;;;;;1.70;1.00;;;14.30;94.60;;;;;;4195300;28;20090;-59
2023/10/09 06:18:33;;;;;;;2.45;0.88;;;14.50;93.20;;;;;;4195536;28;20025;-61
2023/10/09 06:21:06;;;;;;;6.90;1.50;;;15.00;92.90;;;;;;4196457;28;20032;-59
2023/10/09 06:23:15;;;;;;;2.25;1.17;;;15.20;92.70;;;;;;4194950;28;20103;-59
2023/10/09 06:25:17;;;;;;;4.97;1.48;;;15.50;92.00;;;;;;4196493;28;20044;-57
2023/10/09 06:29:36;;;;;;;2.38;0.90;;;16.10;91.20;;;;;;4196327;28;20090;-61
2023/10/09 06:34:16;;;;;;;6.55;1.55;;;16.40;90.40;;;;;;4196881;28;20105;-59
2023/10/09 06:36:17;;;;;;;2.00;1.10;;;16.40;89.80;;;;;;4195011;28;20074;-60
2023/10/09 06:38:23;;;;;;;3.25;1.15;;;16.30;89.60;;;;;;4195197;28;20799;-59
2023/10/09 06:44:54;;;;;;;5.13;1.30;;;15.40;88.60;;;;;;4194519;28;20134;-56
2023/10/09 06:46:57;;;;;;;4.22;1.42;;;15.40;89.00;;;;;;4195846;28;20058;-58
2023/10/09 06:48:59;;;;;;;2.53;1.33;;;15.30;88.90;;;;;;4195069;28;20478;-58
2023/10/09 06:56:05;;;;;;;2.55;1.95;;;14.00;89.30;;;;;;4195773;28;20082;-57
2023/10/09 06:58:09;;;;;;;2.38;1.20;;;13.50;89.70;;;;;;4195264;28;20048;-57
2023/10/09 07:02:45;;;;;;;2.10;1.20;;;13.10;90.30;;;;;;4194490;28;20431;-57
2023/10/09 07:04:46;;;;;;;2.93;1.90;;;13.40;90.30;;;;;;4195799;28;20105;-58
2023/10/09 07:06:51;;;;;;;3.87;1.63;;;13.90;90.20;;;;;;4194456;28;20020;-59
2023/10/09 07:13:36;;;;;;;3.87;1.60;;;13.40;90.60;;;;;;4175540;28;20048;-61
2023/10/09 07:18:18;;;;;;;2.50;1.40;;;13.70;90.10;;;;;;4195750;28;20485;-59
2023/10/09 07:20:38;;;;;;;4.67;1.20;;;14.20;89.90;;;;;;4194588;28;20037;-57
2023/10/09 07:22:52;;;;;;;2.03;1.08;;;14.20;88.80;;;;;;4194995;28;20686;-55
2023/10/09 07:24:58;;;;;;;2.73;1.17;;;14.10;89.40;;;;;;4194558;28;20504;-59
2023/10/09 07:27:06;;;;;;;2.40;1.03;;;14.40;88.60;;;;;;4194847;28;20407;-59
2023/10/09 07:29:16;;;;;;;2.90;1.27;;;14.90;88.00;;;;;;4194335;28;20450;-57
2023/10/09 07:31:24;;;;;;;5.38;1.60;;;15.20;86.50;;;;;;4195015;28;20040;-57
2023/10/09 07:33:52;;;;;;;2.75;1.40;;;15.10;86.60;;;;;;4194719;28;20125;-56
2023/10/09 07:37:54;;;;;;;1.42;1.10;;;15.80;85.90;;;;;;4194344;28;20032;-57
2023/10/09 07:39:58;;;;;;;3.22;1.17;;;15.90;85.70;;;;;;4194817;28;20033;-58
2023/10/09 07:42:15;;;;;;;4.28;1.17;;;15.80;84.80;;;;;;4194115;28;20029;-58
2023/10/09 07:44:19;;;;;;;4.20;0.98;;;16.00;84.80;;;;;;4194593;28;20399;-57
2023/10/09 07:46:32;;;;;;;3.17;1.00;;;15.90;83.90;;;;;;4194153;28;20052;-57
2023/10/09 07:48:48;;;;;;;3.88;1.38;;;15.40;84.30;;;;;;4194421;28;20343;-57
2023/10/09 07:50:49;;;;;;;6.22;1.23;;;15.00;84.80;;;;;;4193975;28;20101;-59
2023/10/09 07:52:51;;;;;;;1.65;0.63;;;14.90;84.90;;;;;;4194530;28;20514;-57
2023/10/09 07:55:02;;;;;;;2.38;0.90;;;14.80;84.40;;;;;;4194058;28;20086;-60
2023/10/09 07:57:15;;;;;;;1.95;0.90;;;14.50;84.40;;;;;;4194678;28;20117;-57
2023/10/09 07:59:18;;;;;;;3.42;0.60;;;14.10;83.40;;;;;;4194023;28;20040;-59
2023/10/09 08:01:22;;;;;;;2.85;0.98;;;13.20;83.70;;;;;;4194638;28;20056;-60
2023/10/09 08:03:24;;;;;;;10.48;5.88;;;12.80;84.00;;;;;;4193518;28;20517;-58
2023/10/09 08:05:33;;;;;;;8.10;3.97;;;12.60;84.30;;;;;;4194725;28;20086;-56
2023/10/09 08:07:34;;;;;;;2.13;1.40;;;12.40;84.80;;;;;;4193607;28;20550;-59
2023/10/09 08:09:47;;;;;;;4.82;0.50;;;12.30;84.60;;;;;;4194576;28;20102;-56
2023/10/09 08:12:13;;;;;;;1.70;0.40;;;12.20;84.30;;;;;;4193451;28;20033;-58
2023/10/09 08:16:36;;;;;;;2.93;0.60;;;12.00;84.10;;;;;;4193595;28;20380;-56
2023/10/09 08:18:44;;;;;;;1.53;0.60;;;12.00;84.10;;;;;;4194196;28;20075;-57
2023/10/09 08:21:19;;;;;;;1.83;0.60;;;12.10;83.90;;;;;;4192836;28;20028;-60
2023/10/09 08:23:28;;;;;;;1.43;0.97;;;12.20;83.30;;;;;;4193481;28;20361;-58
2023/10/09 08:25:32;;;;;;;1.97;0.67;;;12.40;83.40;;;;;;4194077;28;20090;-60
2023/10/09 08:29:34;;;;;;;2.53;0.80;;;12.30;83.80;;;;;;4193116;28;20032;-56
2023/10/09 08:31:45;;;;;;;0.83;0.50;;;12.50;83.90;;;;;;4194131;28;20081;-58
2023/10/09 08:33:56;;;;;;;3.97;0.70;;;12.50;83.90;;;;;;4193320;28;20032;-59
2023/10/09 08:36:07;;;;;;;2.50;0.60;;;12.60;83.70;;;;;;4194444;28;20416;-59
2023/10/09 08:38:08;;;;;;;4.33;1.20;;;12.40;83.70;;;;;;4192823;28;20522;-57
2023/10/09 08:40:10;;;;;;;5.40;0.90;;;12.80;84.00;;;;;;4194310;28;20040;-61
2023/10/09 08:42:12;;;;;;;2.20;0.60;;;13.00;83.80;;;;;;4193141;28;20488;-60
2023/10/09 08:44:15;;;;;;;1.77;0.50;;;13.30;83.70;;;;;;4193996;28;20044;-57
2023/10/09 08:46:20;;;;;;;3.33;1.27;;;13.40;83.40;;;;;;4192896;28;20146;-57
2023/10/09 08:48:21;;;;;;;4.57;1.07;;;13.40;83.30;;;;;;4194140;28;20085;-60
2023/10/09 08:50:28;;;;;;;3.80;0.60;;;13.50;83.00;;;;;;4193158;28;20079;-58
2023/10/09 08:52:29;;;;;;;2.87;0.53;;;13.20;83.40;;;;;;4194006;28;20455;-59
2023/10/09 08:54:33;;;;;;;4.83;0.80;;;13.40;83.70;;;;;;4193304;28;20048;-59
2023/10/09 08:56:34;;;;;;;1.10;0.70;;;13.50;82.90;;;;;;4193994;28;20028;-59
2023/10/09 08:58:39;;;;;;;3.37;0.63;;;13.40;82.70;;;;;;4192893;28;20032;-59
2023/10/09 09:00:45;;;;;;;1.17;0.63;;;13.40;83.20;;;;;;4193515;28;20545;-61
2023/10/09 09:02:47;;;;;;;2.10;1.17;;;13.10;82.70;;;;;;4192786;28;20405;-58
2023/10/09 09:04:50;;;;;;;2.47;1.40;;;12.50;83.60;;;;;;4192297;28;20113;-57
2023/10/09 09:06:51;;;;;;;1.63;1.10;;;12.30;84.60;;;;;;4192970;28;20086;-58
2023/10/09 09:09:13;;;;;;;2.83;1.27;;;12.10;85.10;;;;;;4193011;28;20074;-59
2023/10/09 09:11:25;;;;;;;4.60;1.20;;;12.00;85.30;;;;;;4193104;28;20064;-59
2023/10/09 09:13:31;;;;;;;3.27;1.00;;;11.80;85.30;;;;;;4193409;28;20094;-58
2023/10/09 09:15:32;;;;;;;5.47;2.13;;;11.50;85.60;;;;;;4192769;28;20028;-57
2023/10/09 09:17:34;;;;;;;5.00;1.30;;;11.20;86.30;;;;;;4193017;28;20461;-62
2023/10/09 09:19:37;;;;;;;6.60;1.67;;;10.90;87.00;;;;;;4192902;28;20024;-57
2023/10/09 09:21:44;;;;;;;2.30;1.00;;;10.70;87.60;;;;;;4192672;28;20098;-58
2023/10/09 09:23:55;;;;;;;3.07;1.03;;;10.70;87.70;;;;;;4192776;28;20090;-58
2023/10/09 09:25:59;;;;;;;4.67;1.13;;;10.60;87.90;;;;;;4193245;28;20559;-57
2023/10/09 09:28:09;;;;;;;4.40;1.33;;;10.40;88.40;;;;;;4193314;28;20937;-57
2023/10/09 09:30:24;;;;;;;3.25;1.20;;;10.30;88.80;;;;;;4191343;28;20044;-58
2023/10/09 09:32:35;;;;;;;2.80;0.70;;;10.30;89.40;;;;;;4193212;28;20032;-61
2023/10/09 09:35:04;;;;;;;2.50;0.93;;;10.30;89.40;;;;;;4192844;28;20040;-58
2023/10/09 09:37:05;;;;;;;3.13;1.63;;;10.30;89.70;;;;;;4192943;28;20094;-60
2023/10/09 09:39:18;;;;;;;2.33;1.40;;;10.20;90.00;;;;;;4192944;28;20101;-57
2023/10/09 09:41:26;;;;;;;8.27;4.00;;;10.10;90.00;;;;;;4191391;28;20207;-56
2023/10/09 09:43:30;;;;;;;6.13;0.97;;;10.20;90.20;;;;;;4193055;28;20094;-60
2023/10/09 09:45:38;;;;;;;2.70;1.33;;;10.10;90.20;;;;;;4193149;28;20048;-56
2023/10/09 09:47:46;;;;;;;4.77;0.63;;;10.10;90.40;;;;;;4192805;28;20029;-58
2023/10/09 09:49:49;;;;;;;1.27;0.80;;;10.20;90.50;;;;;;4192723;28;20488;-58
2023/10/09 09:51:50;;;;;;;3.53;0.83;;;10.20;90.50;;;;;;4192850;28;20082;-56
2023/10/09 09:53:53;;;;;;;2.00;0.73;;;10.20;90.60;;;;;;4193116;28;20028;-59
2023/10/09 09:55:57;;;;;;;3.70;1.00;;;10.20;90.60;;;;;;4192615;28;20029;-53
2023/10/09 09:58:00;;;;;;;2.30;0.83;;;10.30;90.70;;;;;;4193545;28;20029;-61
2023/10/09 10:00:07;;;;;;;2.60;1.10;;;10.40;90.80;;;;;;4192185;28;20487;-57
2023/10/09 10:02:20;;;;;;;3.17;1.10;;;10.40;90.80;;;;;;4193378;28;20495;-56
2023/10/09 10:04:23;;;;;;;4.30;1.00;;;10.50;91.10;;;;;;4192156;28;20094;-57
2023/10/09 10:06:29;;;;;;;3.77;1.13;;;10.60;91.10;;;;;;4193561;28;20052;-57
2023/10/09 10:08:33;;;;;;;1.70;0.90;;;10.50;91.20;;;;;;4191975;28;20655;-58
2023/10/09 10:10:47;;;;;;;2.57;0.60;;;10.60;91.40;;;;;;4192955;28;20361;-58
2023/10/09 10:13:00;;;;;;;2.57;1.20;;;10.60;91.40;;;;;;4191828;28;20048;-56
2023/10/09 10:15:14;;;;;;;4.77;1.20;;;10.60;91.40;;;;;;4195757;28;20036;-56
2023/10/09 10:17:20;;;;;;;5.90;1.30;;;10.50;91.40;;;;;;4194944;28;20036;-60
2023/10/09 10:21:34;;;;;;;7.97;1.40;;;10.60;91.70;;;;;;4195104;28;20028;-56
2023/10/09 10:23:36;;;;;;;3.50;1.27;;;10.70;91.70;;;;;;4196024;28;20053;-58
2023/10/09 10:25:49;;;;;;;5.73;1.33;;;10.70;91.80;;;;;;4195393;28;20098;-56
2023/10/09 10:28:44;;;;;;;2.60;1.10;;;10.80;91.90;;;;;;4196086;28;20373;-56
2023/10/09 10:30:50;;;;;;;2.90;1.20;;;10.90;91.90;;;;;;4194698;28;20078;-60
2023/10/09 10:32:51;;;;;;;3.53;1.30;;;10.90;92.10;;;;;;4195517;28;20033;-53
2023/10/09 10:34:57;;;;;;;4.00;1.37;;;11.00;92.10;;;;;;4194712;28;20339;-56
2023/10/09 10:36:58;;;;;;;5.27;1.97;;;11.00;92.10;;;;;;4195679;28;20106;-57
2023/10/09 10:39:21;;;;;;;6.80;1.60;;;11.00;92.10;;;;;;4194562;28;20086;-57
2023/10/09 10:41:25;;;;;;;2.17;1.30;;;11.00;92.00;;;;;;4195725;28;20098;-57
2023/10/09 10:43:32;;;;;;;4.87;1.37;;;10.90;92.10;;;;;;4194643;28;20086;-55
2023/10/09 10:45:35;;;;;;;10.27;3.53;;;10.70;92.30;;;;;;4195595;28;20075;-55
2023/10/09 10:47:40;;;;;;;3.57;1.60;;;10.80;92.40;;;;;;4194618;28;20037;-57
2023/10/09 10:49:49;;;;;;;3.57;0.90;;;10.90;92.50;;;;;;4194366;28;20086;-56
2023/10/09 10:52:01;;;;;;;3.67;1.50;;;10.90;92.50;;;;;;4194853;28;20048;-58
2023/10/09 10:56:34;;;;;;;2.60;1.20;;;10.90;92.60;;;;;;4196039;28;20037;-60
2023/10/09 10:58:37;;;;;;;5.77;1.83;;;10.90;92.80;;;;;;4195784;28;20098;-57
2023/10/09 11:03:13;;;;;;;3.07;1.30;;;11.10;92.70;;;;;;4195691;28;20142;-56
2023/10/09 11:05:14;;;;;;;6.13;1.53;;;11.10;92.50;;;;;;4194452;28;20032;-57
2023/10/09 11:07:24;;;;;;;4.07;1.70;;;11.10;92.60;;;;;;4195480;28;20085;-57
2023/10/09 11:09:35;;;;;;;4.25;1.83;;;11.00;92.80;;;;;;4194246;28;20343;-57
2023/10/09 11:11:46;;;;;;;3.80;1.48;;;11.00;92.80;;;;;;4195318;28;20408;-58
2023/10/09 11:13:56;;;;;;;4.03;1.30;;;11.10;92.80;;;;;;4194381;28;20090;-60
2023/10/09 11:16:14;;;;;;;6.85;1.20;;;11.00;92.70;;;;;;4195409;28;20423;-56
2023/10/09 11:18:27;;;;;;;5.57;1.30;;;11.00;92.70;;;;;;4194194;28;20021;-56
2023/10/09 11:20:32;;;;;;;4.47;1.73;;;10.90;92.70;;;;;;4194987;28;20044;-58
2023/10/09 11:22:50;;;;;;;7.57;1.40;;;10.90;92.90;;;;;;4194415;28;20469;-58
2023/10/09 11:25:11;;;;;;;3.93;1.40;;;10.90;92.90;;;;;;4194462;28;20102;-58
2023/10/09 11:27:18;;;;;;;;;;;10.80;92.70;;;;;;4195124;28;20443;-59
2023/10/09 11:29:52;;;;;;;3.97;1.70;;;10.80;92.90;;;;;;4194875;28;19900;-57
2023/10/09 11:32:01;;;;;;;6.30;1.30;;;10.90;93.00;;;;;;4194538;28;20050;-57
2023/10/09 11:34:05;;;;;;;11.55;2.35;;;10.90;92.80;;;;;;4194175;28;20055;-58
2023/10/09 11:36:07;;;;;;;3.53;1.63;;;11.00;92.80;;;;;;4194647;28;20033;-59
2023/10/09 11:38:21;;;;;;;3.20;2.07;;;11.00;92.80;;;;;;4194047;28;20025;-58
2023/10/09 11:41:05;;;;;;;3.77;1.50;;;11.00;92.80;;;;;;4194280;28;20461;-59
2023/10/09 11:42:57;;;;;;;3.57;1.40;;;11.00;92.70;;;;;;4193968;28;20428;-58
2023/10/09 11:45:04;;;;;;;2.90;1.60;;;10.90;92.70;;;;;;4193151;28;20052;-61
2023/10/09 11:51:21;;;;;;;2.73;1.20;;;10.80;92.70;;;;;;4193737;28;20033;-58
2023/10/09 11:55:25;;;;;;;2.83;1.03;;;10.70;92.70;;;;;;4194315;28;20032;-57
2023/10/09 11:57:33;;;;;;;3.97;1.50;;;10.70;92.70;;;;;;4194299;28;20025;-57
2023/10/09 11:59:38;;;;;;;4.33;1.30;;;10.60;92.90;;;;;;4194250;28;20028;-60
2023/10/09 12:01:42;;;;;;;5.67;1.60;;;10.70;93.10;;;;;;4194177;28;20052;-56
2023/10/09 12:03:49;;;;;;;2.33;0.90;;;10.70;93.20;;;;;;4194488;28;20024;-58
2023/10/09 12:05:50;;;;;;;2.40;1.30;;;10.70;93.00;;;;;;4193372;28;20185;-55
2023/10/09 12:07:54;;;;;;;1.67;1.57;;;10.70;93.10;;;;;;4194540;28;20057;-60
2023/10/09 12:09:56;;;;;;;2.57;1.40;;;10.80;93.00;;;;;;4193390;28;20098;-59
2023/10/09 12:12:00;;;;;;;2.20;1.30;;;10.80;93.10;;;;;;4194549;28;20083;-58
2023/10/09 12:14:01;;;;;;;6.90;2.60;;;10.70;93.20;;;;;;4193162;28;20119;-59
2023/10/09 12:16:07;;;;;;;5.20;1.90;;;10.70;93.30;;;;;;4194333;28;20029;-59
2023/10/09 12:18:14;;;;;;;5.60;1.20;;;10.70;93.20;;;;;;4193348;28;21170;-59
2023/10/09 12:20:31;;;;;;;2.70;1.33;;;10.70;93.30;;;;;;4194462;28;20519;-57
2023/10/09 12:22:33;;;;;;;3.67;1.37;;;10.80;93.50;;;;;;4193262;28;20094;-59
2023/10/09 12:24:34;;;;;;;1.60;0.97;;;10.90;93.50;;;;;;4194143;28;20048;-59
2023/10/09 12:26:35;;;;;;;3.27;1.33;;;11.00;93.60;;;;;;4193410;28;20074;-56
2023/10/09 12:28:36;;;;;;;1.93;1.17;;;10.90;93.20;;;;;;4194331;28;20056;-60
2023/10/09 12:30:41;;;;;;;2.60;1.37;;;10.90;93.60;;;;;;4193293;28;20032;-60
2023/10/09 12:32:42;;;;;;;4.80;1.50;;;10.90;93.20;;;;;;4193771;28;20063;-58
2023/10/09 12:34:44;;;;;;;4.63;1.43;;;10.90;93.20;;;;;;4193190;28;20082;-57
2023/10/09 12:36:45;;;;;;;7.33;1.60;;;10.90;93.20;;;;;;4193126;28;20094;-58
2023/10/09 12:38:52;;;;;;;3.80;1.83;;;10.90;92.80;;;;;;4193067;28;20500;-58